Florencia — IBPD — position and weather

sailwx.info

Track history (hours):
 
Tides and Currents Weather Stations Pressure Air Temp Water Temp Dewpoint Dewpoint Depression Visibility Wind Speed Wind Dir Waves Ship Positions

Florencia

Last reported at 2016-Aug-30 00:33 UTC. Time now 2016-Aug-30 01:18 UTC.
Position N 39°15' E 015°06'.

Length 186 m; draft 6.4 m.

Type: Ship. MMSI: 247105900.

Date/timePositionNaut miles runAvg speedWind from/ knotsBaromVisibWave heightAir tempDewpointWater temp
2016-Aug-30 00:33N 39°15' E 015°06'8721.9
2016-Aug-29 20:33N 40°34' E 014°17'17 6.7
2016-Aug-29 18:04N 40°50' E 014°16'0 0.0
2016-Aug-29 17:24N 40°50' E 014°16'0 0.0
2016-Aug-29 16:18N 40°50' E 014°16'0 0.0
2016-Aug-29 15:20N 40°50' E 014°16'0 0.0
2016-Aug-29 14:33N 40°50' E 014°16'0 0.0
2016-Aug-29 13:33N 40°50' E 014°16'0 0.0
2016-Aug-29 12:26N 40°50' E 014°16'114 9.6
2016-Aug-29 00:32N 39°05' E 015°13'2121.5
2016-Aug-28 23:33N 38°46' E 015°24'2121.2
2016-Aug-28 22:34N 38°27' E 015°37'1717.5
2016-Aug-28 21:34N 38°10' E 015°37'2020.2
2016-Aug-28 20:34N 37°52' E 015°26'2220.7
2016-Aug-28 19:29N 37°31' E 015°15'8 0.6
2016-Aug-28 06:33N 37°29' E 015°06'1211.9
2016-Aug-28 05:32N 37°37' E 015°18'2222.6
2016-Aug-28 04:33N 37°57' E 015°29'2120.9
2016-Aug-28 03:34N 38°16' E 015°40'2221.7
2016-Aug-28 02:33N 38°36' E 015°29'2222.0
2016-Aug-28 01:33N 38°56' E 015°17'2622.0
2016-Aug-28 00:23N 39°19' E 015°03'2922.0
2016-Aug-27 23:05N 39°45' E 014°47'70 7.3
2016-Aug-27 13:31N 40°50' E 014°16'0 0.0
2016-Aug-27 08:22N 40°50' E 014°16'16 4.1
2016-Aug-27 04:33N 40°35' E 014°17'9821.9
2016-Aug-27 00:04N 39°06' E 015°12'1322.3
2016-Aug-26 23:30N 38°55' E 015°19'2122.3
2016-Aug-26 22:33N 38°36' E 015°31'2121.4
2016-Aug-26 21:33N 38°17' E 015°44'2121.2
2016-Aug-26 20:33N 37°58' E 015°31'2221.8
2016-Aug-26 19:33N 37°38' E 015°19'14 1.1
2016-Aug-26 06:26N 37°29' E 015°06'3418.2
2016-Aug-26 04:33N 37°58' E 015°29'2020.5
2016-Aug-26 03:33N 38°17' E 015°40'2221.6
2016-Aug-26 02:33N 38°36' E 015°29'2221.7
2016-Aug-26 01:33N 38°56' E 015°17'11221.6
2016-Aug-25 20:21N 40°38' E 014°17'12 4.3
2016-Aug-25 17:28N 40°50' E 014°16'117 8.3
2016-Aug-25 03:20N 39°03' E 015°14'1721.4
2016-Aug-25 02:31N 38°47' E 015°24'2121.4
2016-Aug-25 01:33N 38°28' E 015°36'1716.8
2016-Aug-25 00:33N 38°12' E 015°36'2121.3
2016-Aug-24 23:34N 37°52' E 015°27'2120.3
2016-Aug-24 22:33N 37°33' E 015°16'8 0.5
2016-Aug-24 06:28N 37°28' E 015°08'4121.6
2016-Aug-24 04:34N 38°04' E 015°33'1818.0
2016-Aug-24 03:33N 38°22' E 015°38'2221.3
2016-Aug-24 02:32N 38°41' E 015°26'2121.6
2016-Aug-24 01:33N 39°01' E 015°14'9321.5
2016-Aug-23 21:14N 40°24' E 014°22'1521.7
2016-Aug-23 20:33N 40°39' E 014°17'12 9.8
2016-Aug-23 19:22N 40°50' E 014°16'0 0.0
2016-Aug-23 18:28N 40°50' E 014°16'0 0.0
2016-Aug-23 17:28N 40°50' E 014°16'0 0.0
2016-Aug-23 16:28N 40°50' E 014°16'0 0.0
2016-Aug-23 14:10N 40°50' E 014°16'0 0.0
2016-Aug-23 11:04N 40°50' E 014°16'0 0.0
2016-Aug-23 09:33N 40°50' E 014°16'1515.6
2016-Aug-23 08:34N 40°35' E 014°17'10720.8
2016-Aug-23 03:24N 38°58' E 015°17'1820.9
2016-Aug-23 02:33N 38°43' E 015°27'2121.1
2016-Aug-23 01:34N 38°24' E 015°40'1615.8
2016-Aug-23 00:34N 38°08' E 015°36'2120.9
2016-Aug-22 23:33N 37°49' E 015°25'2120.1
2016-Aug-22 22:31N 37°30' E 015°13'6 1.9
2016-Aug-22 19:08N 37°29' E 015°06'7 0.5
2016-Aug-22 04:31N 37°31' E 015°14'2121.6
2016-Aug-22 03:33N 37°50' E 015°25'2120.9
2016-Aug-22 02:33N 38°09' E 015°35'1717.4
2016-Aug-22 01:33N 38°27' E 015°35'2120.8
2016-Aug-22 00:33N 38°45' E 015°24'2120.6
2016-Aug-21 23:33N 39°04' E 015°12'10420.8
2016-Aug-21 18:33N 40°39' E 014°17'11 9.7
2016-Aug-21 17:23N 40°50' E 014°16'0 0.0
2016-Aug-21 16:32N 40°50' E 014°16'0 0.0
2016-Aug-21 15:11N 40°50' E 014°16'0 0.0
2016-Aug-21 14:32N 40°50' E 014°16'0 0.0
2016-Aug-21 13:32N 40°50' E 014°16'0 0.0
2016-Aug-21 12:29N 40°50' E 014°16'0 0.0
2016-Aug-21 11:32N 40°50' E 014°16'0 0.0
2016-Aug-21 10:05N 40°50' E 014°16'0 0.0
2016-Aug-21 09:23N 40°50' E 014°16'810.1
2016-Aug-21 08:33N 40°42' E 014°17'10821.2
2016-Aug-21 03:27N 39°03' E 015°14'1921.5
2016-Aug-21 02:33N 38°46' E 015°25'2121.3
2016-Aug-21 01:33N 38°27' E 015°38'1716.7
2016-Aug-21 00:33N 38°10' E 015°37'2121.2
2016-Aug-20 23:33N 37°51' E 015°26'1919.2
2016-Aug-20 22:33N 37°33' E 015°16'29 1.6
2016-Aug-20 04:33N 37°60' E 015°30'2019.9
2016-Aug-20 03:34N 38°18' E 015°41'2221.6
2016-Aug-20 02:33N 38°37' E 015°28'2221.9
2016-Aug-20 01:31N 38°57' E 015°14'  
Track history (hours):
 
Tides and Currents Weather Stations Pressure Air Temp Water Temp Dewpoint Dewpoint Depression Visibility Wind Speed Wind Dir Waves Ship Positions

Florencia

Last reported at 2016-Aug-30 00:33 UTC. Time now 2016-Aug-30 01:18 UTC.
Position N 39°15' E 015°06'.

Length 186 m; draft 6.4 m.

Type: Ship. MMSI: 247105900.

Date/timePositionNaut miles runAvg speedWind from/ knotsBaromVisibWave heightAir tempDewpointWater temp
2016-Aug-30 00:33N 39°15' E 015°06'8721.9
2016-Aug-29 20:33N 40°34' E 014°17'17 6.7
2016-Aug-29 18:04N 40°50' E 014°16'0 0.0
2016-Aug-29 17:24N 40°50' E 014°16'0 0.0
2016-Aug-29 16:18N 40°50' E 014°16'0 0.0
2016-Aug-29 15:20N 40°50' E 014°16'0 0.0
2016-Aug-29 14:33N 40°50' E 014°16'0 0.0
2016-Aug-29 13:33N 40°50' E 014°16'0 0.0
2016-Aug-29 12:26N 40°50' E 014°16'114 9.6
2016-Aug-29 00:32N 39°05' E 015°13'2121.5
2016-Aug-28 23:33N 38°46' E 015°24'2121.2
2016-Aug-28 22:34N 38°27' E 015°37'1717.5
2016-Aug-28 21:34N 38°10' E 015°37'2020.2
2016-Aug-28 20:34N 37°52' E 015°26'2220.7
2016-Aug-28 19:29N 37°31' E 015°15'8 0.6
2016-Aug-28 06:33N 37°29' E 015°06'1211.9
2016-Aug-28 05:32N 37°37' E 015°18'2222.6
2016-Aug-28 04:33N 37°57' E 015°29'2120.9
2016-Aug-28 03:34N 38°16' E 015°40'2221.7
2016-Aug-28 02:33N 38°36' E 015°29'2222.0
2016-Aug-28 01:33N 38°56' E 015°17'2622.0
2016-Aug-28 00:23N 39°19' E 015°03'2922.0
2016-Aug-27 23:05N 39°45' E 014°47'70 7.3
2016-Aug-27 13:31N 40°50' E 014°16'0 0.0
2016-Aug-27 08:22N 40°50' E 014°16'16 4.1
2016-Aug-27 04:33N 40°35' E 014°17'9821.9
2016-Aug-27 00:04N 39°06' E 015°12'1322.3
2016-Aug-26 23:30N 38°55' E 015°19'2122.3
2016-Aug-26 22:33N 38°36' E 015°31'2121.4
2016-Aug-26 21:33N 38°17' E 015°44'2121.2
2016-Aug-26 20:33N 37°58' E 015°31'2221.8
2016-Aug-26 19:33N 37°38' E 015°19'14 1.1
2016-Aug-26 06:26N 37°29' E 015°06'3418.2
2016-Aug-26 04:33N 37°58' E 015°29'2020.5
2016-Aug-26 03:33N 38°17' E 015°40'2221.6
2016-Aug-26 02:33N 38°36' E 015°29'2221.7
2016-Aug-26 01:33N 38°56' E 015°17'11221.6
2016-Aug-25 20:21N 40°38' E 014°17'12 4.3
2016-Aug-25 17:28N 40°50' E 014°16'117 8.3
2016-Aug-25 03:20N 39°03' E 015°14'1721.4
2016-Aug-25 02:31N 38°47' E 015°24'2121.4
2016-Aug-25 01:33N 38°28' E 015°36'1716.8
2016-Aug-25 00:33N 38°12' E 015°36'2121.3
2016-Aug-24 23:34N 37°52' E 015°27'2120.3
2016-Aug-24 22:33N 37°33' E 015°16'8 0.5
2016-Aug-24 06:28N 37°28' E 015°08'4121.6
2016-Aug-24 04:34N 38°04' E 015°33'1818.0
2016-Aug-24 03:33N 38°22' E 015°38'2221.3
2016-Aug-24 02:32N 38°41' E 015°26'2121.6
2016-Aug-24 01:33N 39°01' E 015°14'9321.5
2016-Aug-23 21:14N 40°24' E 014°22'1521.7
2016-Aug-23 20:33N 40°39' E 014°17'12 9.8
2016-Aug-23 19:22N 40°50' E 014°16'0 0.0
2016-Aug-23 18:28N 40°50' E 014°16'0 0.0
2016-Aug-23 17:28N 40°50' E 014°16'0 0.0
2016-Aug-23 16:28N 40°50' E 014°16'0 0.0
2016-Aug-23 14:10N 40°50' E 014°16'0 0.0
2016-Aug-23 11:04N 40°50' E 014°16'0 0.0
2016-Aug-23 09:33N 40°50' E 014°16'1515.6
2016-Aug-23 08:34N 40°35' E 014°17'10720.8
2016-Aug-23 03:24N 38°58' E 015°17'1820.9
2016-Aug-23 02:33N 38°43' E 015°27'2121.1
2016-Aug-23 01:34N 38°24' E 015°40'1615.8
2016-Aug-23 00:34N 38°08' E 015°36'2120.9
2016-Aug-22 23:33N 37°49' E 015°25'2120.1
2016-Aug-22 22:31N 37°30' E 015°13'6 1.9
2016-Aug-22 19:08N 37°29' E 015°06'7 0.5
2016-Aug-22 04:31N 37°31' E 015°14'2121.6
2016-Aug-22 03:33N 37°50' E 015°25'2120.9
2016-Aug-22 02:33N 38°09' E 015°35'1717.4
2016-Aug-22 01:33N 38°27' E 015°35'2120.8
2016-Aug-22 00:33N 38°45' E 015°24'2120.6
2016-Aug-21 23:33N 39°04' E 015°12'10420.8
2016-Aug-21 18:33N 40°39' E 014°17'11 9.7
2016-Aug-21 17:23N 40°50' E 014°16'0 0.0
2016-Aug-21 16:32N 40°50' E 014°16'0 0.0
2016-Aug-21 15:11N 40°50' E 014°16'0 0.0
2016-Aug-21 14:32N 40°50' E 014°16'0 0.0
2016-Aug-21 13:32N 40°50' E 014°16'0 0.0
2016-Aug-21 12:29N 40°50' E 014°16'0 0.0
2016-Aug-21 11:32N 40°50' E 014°16'0 0.0
2016-Aug-21 10:05N 40°50' E 014°16'0 0.0
2016-Aug-21 09:23N 40°50' E 014°16'810.1
2016-Aug-21 08:33N 40°42' E 014°17'10821.2
2016-Aug-21 03:27N 39°03' E 015°14'1921.5
2016-Aug-21 02:33N 38°46' E 015°25'2121.3
2016-Aug-21 01:33N 38°27' E 015°38'1716.7
2016-Aug-21 00:33N 38°10' E 015°37'2121.2
2016-Aug-20 23:33N 37°51' E 015°26'1919.2
2016-Aug-20 22:33N 37°33' E 015°16'29 1.6
2016-Aug-20 04:33N 37°60' E 015°30'2019.9
2016-Aug-20 03:34N 38°18' E 015°41'2221.6
2016-Aug-20 02:33N 38°37' E 015°28'2221.9
2016-Aug-20 01:31N 38°57' E 015°14'  

Dump ship's entire track history